Time;durP1;ratioP1;P1;durP2;ratioP2;P2;SDS_P1;SDS_P2;PMS_P1;PMS_P2;Temp;Humidity;BMP_temperature;BMP_pressure;BME280_temperature;BME280_humidity;BME280_pressure;Samples;Min_cycle;Max_cycle;Signal;HPM_P1;HPM_P2
2023/06/25 00:01:19;;;;;;;6.85;2.63;;;18.90;99.90;;;;;;5035415;28;20020;-73
2023/06/25 00:03:45;;;;;;;9.40;1.90;;;18.90;99.90;;;;;;5035355;28;20025;-74
2023/06/25 00:06:10;;;;;;;4.63;2.30;;;18.90;99.90;;;;;;5035632;28;20453;-74
2023/06/25 00:08:36;;;;;;;4.50;2.15;;;18.90;99.90;;;;;;5035642;28;20030;-73
2023/06/25 00:11:02;;;;;;;3.47;2.03;;;18.90;99.90;;;;;;5035553;28;20033;-73
2023/06/25 00:13:27;;;;;;;2.58;1.95;;;18.80;99.90;;;;;;5035057;28;20030;-73
2023/06/25 00:15:53;;;;;;;4.45;2.15;;;18.90;99.90;;;;;;5035722;28;20091;-73
2023/06/25 00:18:18;;;;;;;3.45;2.13;;;18.80;99.90;;;;;;5034001;28;20020;-73
2023/06/25 00:20:46;;;;;;;3.97;2.10;;;18.80;99.90;;;;;;5035261;28;20049;-73
2023/06/25 00:23:14;;;;;;;5.53;3.03;;;18.80;99.90;;;;;;5035120;28;20062;-73
2023/06/25 00:25:40;;;;;;;5.78;2.42;;;18.80;99.90;;;;;;5035164;28;20025;-73
2023/06/25 00:28:08;;;;;;;5.20;2.75;;;18.90;99.90;;;;;;5035162;28;20397;-73
2023/06/25 00:30:35;;;;;;;4.68;2.30;;;18.80;99.90;;;;;;5033439;28;20385;-73
2023/06/25 00:33:00;;;;;;;4.00;2.00;;;18.70;99.90;;;;;;5034826;28;20430;-73
2023/06/25 00:35:28;;;;;;;3.20;1.88;;;18.70;99.90;;;;;;5033578;28;20025;-73
2023/06/25 00:37:57;;;;;;;4.40;2.42;;;18.60;99.90;;;;;;5034853;28;20028;-73
2023/06/25 00:40:23;;;;;;;3.80;2.10;;;18.60;99.90;;;;;;5034745;28;20029;-73
2023/06/25 00:42:56;;;;;;;5.78;3.22;;;18.60;99.90;;;;;;5034745;28;20026;-73
2023/06/25 00:45:24;;;;;;;10.52;3.38;;;18.60;99.90;;;;;;5034762;28;20093;-73
2023/06/25 00:47:50;;;;;;;6.28;3.30;;;18.60;99.90;;;;;;5034677;28;20025;-73
2023/06/25 00:50:15;;;;;;;9.95;3.42;;;18.60;99.90;;;;;;5034946;28;20447;-73
2023/06/25 00:52:41;;;;;;;8.05;4.00;;;18.60;99.90;;;;;;5034278;28;20033;-73
2023/06/25 00:55:08;;;;;;;10.02;4.75;;;18.60;99.90;;;;;;5034475;28;20030;-73
2023/06/25 00:57:34;;;;;;;7.15;3.78;;;18.70;99.90;;;;;;5034287;28;20025;-73
2023/06/25 01:00:00;;;;;;;8.80;4.57;;;18.70;99.90;;;;;;5032939;28;20072;-73
2023/06/25 01:02:44;;;;;;;11.63;5.50;;;18.80;99.90;;;;;;5033117;28;20021;-73
2023/06/25 01:05:15;;;;;;;10.27;5.25;;;18.80;99.90;;;;;;5034373;28;20026;-73
2023/06/25 01:07:43;;;;;;;10.25;5.47;;;18.90;99.90;;;;;;5034181;28;20017;-73
2023/06/25 01:10:11;;;;;;;15.32;5.32;;;18.90;99.90;;;;;;5034357;28;20423;-73
2023/06/25 01:12:37;;;;;;;12.25;5.70;;;18.80;99.90;;;;;;5032733;28;20030;-73
2023/06/25 01:15:04;;;;;;;9.55;4.68;;;19.10;99.90;;;;;;5032910;28;20124;-73
2023/06/25 01:17:29;;;;;;;11.18;5.53;;;18.90;99.90;;;;;;5034024;28;20021;-73
2023/06/25 01:19:55;;;;;;;13.48;6.10;;;18.90;99.90;;;;;;5032863;28;20022;-73
2023/06/25 01:22:43;;;;;;;13.45;5.70;;;18.90;99.90;;;;;;5033860;28;20071;-74
2023/06/25 01:25:09;;;;;;;11.43;5.60;;;18.90;99.90;;;;;;5033983;28;20021;-73
2023/06/25 01:27:35;;;;;;;12.90;6.15;;;18.90;99.90;;;;;;5033966;28;20264;-73
2023/06/25 01:30:03;;;;;;;13.70;5.57;;;18.90;99.90;;;;;;5034172;28;20530;-73
2023/06/25 01:32:29;;;;;;;8.30;5.20;;;18.90;99.90;;;;;;5032578;28;20029;-73
2023/06/25 01:34:54;;;;;;;9.95;5.68;;;18.90;99.90;;;;;;5033751;28;20018;-73
2023/06/25 01:37:20;;;;;;;11.68;5.53;;;18.80;99.90;;;;;;5033601;28;20017;-73
2023/06/25 01:39:54;;;;;;;10.55;4.65;;;18.80;99.90;;;;;;5033362;28;20075;-74
2023/06/25 01:42:19;;;;;;;13.85;5.57;;;18.80;99.90;;;;;;5032413;28;20404;-73
2023/06/25 01:44:45;;;;;;;11.27;6.07;;;18.80;99.90;;;;;;5033639;28;20026;-73
2023/06/25 01:47:11;;;;;;;11.30;5.72;;;18.70;99.90;;;;;;5033557;28;20105;-73
2023/06/25 01:49:37;;;;;;;10.65;4.97;;;18.80;99.90;;;;;;5033520;28;20037;-73
2023/06/25 01:52:03;;;;;;;12.20;4.65;;;18.80;99.90;;;;;;5033510;28;20029;-73
2023/06/25 01:54:29;;;;;;;7.63;4.15;;;18.70;99.90;;;;;;5033278;28;20088;-73
2023/06/25 01:56:56;;;;;;;10.75;4.90;;;18.60;99.90;;;;;;5032001;28;20079;-74
2023/06/25 01:59:21;;;;;;;12.68;5.47;;;18.70;99.90;;;;;;5032023;28;20043;-74
2023/06/25 02:01:47;;;;;;;9.93;5.03;;;18.60;99.90;;;;;;5032135;28;20026;-74
2023/06/25 02:04:12;;;;;;;9.93;4.80;;;18.60;99.90;;;;;;5032055;28;20164;-73
2023/06/25 02:06:38;;;;;;;9.50;5.18;;;18.60;99.90;;;;;;5033093;28;20037;-73
2023/06/25 02:09:03;;;;;;;6.50;4.07;;;18.60;99.90;;;;;;5033309;28;20508;-73
2023/06/25 02:11:29;;;;;;;9.98;5.22;;;18.60;99.90;;;;;;5032283;28;20397;-73
2023/06/25 02:13:54;;;;;;;7.43;3.90;;;18.60;99.90;;;;;;5033005;28;20413;-74
2023/06/25 02:16:20;;;;;;;9.82;4.03;;;18.60;99.90;;;;;;5033137;28;20120;-73
2023/06/25 02:18:46;;;;;;;6.53;4.15;;;18.60;99.90;;;;;;5033296;28;20025;-73
2023/06/25 02:21:11;;;;;;;8.60;4.95;;;18.50;99.90;;;;;;5032964;28;20071;-74
2023/06/25 02:23:37;;;;;;;6.97;4.05;;;18.50;99.90;;;;;;5033048;28;20075;-73
2023/06/25 02:26:02;;;;;;;8.20;4.65;;;18.50;99.90;;;;;;5033066;28;20064;-73
2023/06/25 02:28:28;;;;;;;10.38;5.10;;;18.50;99.90;;;;;;5033309;28;20028;-73
2023/06/25 02:30:53;;;;;;;14.10;6.00;;;18.50;99.90;;;;;;5031857;28;20079;-73
2023/06/25 02:33:19;;;;;;;7.85;4.57;;;18.40;99.90;;;;;;5032861;28;20064;-74
2023/06/25 02:35:44;;;;;;;12.43;5.78;;;18.50;99.90;;;;;;5031808;28;20045;-73
2023/06/25 02:38:10;;;;;;;10.55;4.90;;;18.40;99.90;;;;;;5032976;28;20013;-74
2023/06/25 02:40:36;;;;;;;13.32;6.03;;;18.40;99.90;;;;;;5031684;28;20556;-73
2023/06/25 02:43:01;;;;;;;13.35;5.90;;;18.40;99.90;;;;;;5032891;28;20389;-73
2023/06/25 02:45:27;;;;;;;12.32;5.40;;;18.30;99.90;;;;;;5032938;28;20112;-73
2023/06/25 02:47:53;;;;;;;11.10;4.55;;;18.30;99.90;;;;;;5031760;28;20082;-73
2023/06/25 02:50:18;;;;;;;8.98;4.57;;;18.30;99.90;;;;;;5033027;28;20101;-73
2023/06/25 02:52:44;;;;;;;9.32;4.53;;;18.30;99.90;;;;;;5032657;28;20029;-73
2023/06/25 02:55:10;;;;;;;7.95;4.82;;;18.20;99.90;;;;;;5032831;28;20380;-73
2023/06/25 02:57:36;;;;;;;13.38;5.95;;;18.30;99.90;;;;;;5032751;28;20033;-73
2023/06/25 03:00:04;;;;;;;11.45;5.05;;;18.20;99.90;;;;;;5032779;28;20084;-73
2023/06/25 03:02:30;;;;;;;9.32;4.53;;;18.20;99.90;;;;;;5030986;28;20116;-73
2023/06/25 03:04:56;;;;;;;7.78;4.85;;;18.20;99.90;;;;;;5032876;28;20101;-73
2023/06/25 03:07:21;;;;;;;8.82;5.30;;;18.10;99.90;;;;;;5032666;28;20026;-73
2023/06/25 03:09:47;;;;;;;7.93;5.00;;;18.10;99.90;;;;;;5032826;28;20032;-73
2023/06/25 03:12:12;;;;;;;9.63;5.53;;;18.10;99.90;;;;;;5031207;28;20021;-73
2023/06/25 03:14:39;;;;;;;10.57;4.97;;;18.10;99.90;;;;;;5031101;28;20120;-73
2023/06/25 03:17:05;;;;;;;9.23;4.93;;;18.10;99.90;;;;;;5012776;28;20033;-73
2023/06/25 03:19:31;;;;;;;10.55;4.93;;;18.10;99.90;;;;;;5012867;28;20429;-73
2023/06/25 03:21:56;;;;;;;8.60;5.10;;;18.00;99.90;;;;;;5012770;28;20030;-73
2023/06/25 03:24:22;;;;;;;9.65;5.07;;;18.00;99.90;;;;;;5015645;28;20029;-73
2023/06/25 03:26:48;;;;;;;9.90;5.68;;;18.00;99.90;;;;;;5016233;28;20060;-73
2023/06/25 03:29:13;;;;;;;13.20;5.65;;;18.00;99.90;;;;;;5016210;28;20381;-73
2023/06/25 03:31:39;;;;;;;9.30;5.50;;;18.00;99.90;;;;;;5016263;28;20025;-73
2023/06/25 03:34:04;;;;;;;9.93;5.13;;;18.00;99.90;;;;;;5016115;28;20068;-73
2023/06/25 03:36:30;;;;;;;14.38;5.50;;;18.00;99.90;;;;;;5016195;28;20018;-73
2023/06/25 03:38:56;;;;;;;9.98;5.85;;;17.90;99.90;;;;;;5031347;28;20057;-73
2023/06/25 03:41:22;;;;;;;8.50;4.60;;;17.90;99.90;;;;;;5016131;28;20014;-73
2023/06/25 03:43:48;;;;;;;9.35;5.00;;;17.90;99.90;;;;;;5016036;28;20034;-73
2023/06/25 03:46:14;;;;;;;11.88;5.82;;;17.80;99.90;;;;;;5014721;28;20030;-73
2023/06/25 03:48:43;;;;;;;11.48;5.30;;;17.90;99.90;;;;;;5017315;28;20191;-73
2023/06/25 03:51:09;;;;;;;10.32;5.07;;;17.90;99.90;;;;;;5036092;28;20021;-73
2023/06/25 03:53:35;;;;;;;9.93;5.85;;;17.90;99.90;;;;;;5035588;28;20032;-74
2023/06/25 03:56:01;;;;;;;12.18;5.03;;;17.90;99.90;;;;;;5035575;28;20388;-74
2023/06/25 03:58:26;;;;;;;9.30;5.70;;;17.90;99.90;;;;;;5035494;28;20454;-74
2023/06/25 04:00:52;;;;;;;10.68;5.35;;;18.00;99.90;;;;;;5034474;28;20017;-74
2023/06/25 04:03:17;;;;;;;10.13;5.38;;;18.30;99.90;;;;;;5034084;28;20113;-74
2023/06/25 04:05:45;;;;;;;10.50;5.53;;;18.00;99.90;;;;;;5035591;28;20480;-74
2023/06/25 04:08:11;;;;;;;9.85;5.88;;;18.00;99.90;;;;;;5035532;28;20071;-75
2023/06/25 04:10:37;;;;;;;10.93;5.28;;;18.00;99.90;;;;;;5034022;28;20033;-75
2023/06/25 04:13:03;;;;;;;16.60;6.88;;;18.10;99.90;;;;;;5035202;28;20033;-75
2023/06/25 04:15:28;;;;;;;10.98;6.07;;;18.10;99.90;;;;;;5035426;28;20084;-75
2023/06/25 04:17:54;;;;;;;8.63;5.38;;;18.50;99.90;;;;;;5035315;28;20435;-75
2023/06/25 04:20:20;;;;;;;11.57;6.68;;;;;;;;;;5035153;28;20027;-75
2023/06/25 04:22:46;;;;;;;10.82;5.70;;;18.30;99.90;;;;;;5035215;28;20084;-75
2023/06/25 04:25:11;;;;;;;11.55;6.03;;;18.40;99.90;;;;;;5035333;28;20021;-75
2023/06/25 04:27:38;;;;;;;12.30;5.82;;;18.40;99.90;;;;;;5035138;28;20022;-75
2023/06/25 04:30:04;;;;;;;9.77;5.47;;;18.50;99.90;;;;;;5033686;28;20029;-75
2023/06/25 04:32:29;;;;;;;7.03;4.68;;;18.50;99.90;;;;;;5034927;28;20025;-74
2023/06/25 04:34:55;;;;;;;10.45;6.30;;;18.60;99.90;;;;;;5034315;28;20500;-74
2023/06/25 04:37:20;;;;;;;11.52;5.28;;;18.60;99.90;;;;;;5034698;28;20022;-74
2023/06/25 04:39:46;;;;;;;8.75;5.15;;;18.70;99.90;;;;;;5034855;28;20025;-74
2023/06/25 04:42:11;;;;;;;10.27;5.25;;;18.90;99.90;;;;;;5034780;28;20021;-74
2023/06/25 04:44:37;;;;;;;10.32;5.30;;;19.00;99.90;;;;;;5034795;28;20052;-74
2023/06/25 04:47:03;;;;;;;12.07;6.25;;;18.90;99.90;;;;;;5034574;28;20029;-74
2023/06/25 04:49:28;;;;;;;13.43;5.50;;;19.00;99.90;;;;;;5034442;28;20075;-74
2023/06/25 04:51:54;;;;;;;11.13;6.35;;;19.10;99.90;;;;;;5034442;28;20036;-74
2023/06/25 04:54:19;;;;;;;8.00;5.25;;;19.20;99.90;;;;;;5033086;28;20034;-74
2023/06/25 04:56:45;;;;;;;9.43;5.25;;;19.30;99.90;;;;;;5034512;28;20120;-74
2023/06/25 04:59:10;;;;;;;11.23;4.63;;;19.30;99.90;;;;;;5034560;28;20044;-74
2023/06/25 05:01:36;;;;;;;9.02;5.25;;;19.50;99.90;;;;;;5034331;28;20052;-74
2023/06/25 05:04:01;;;;;;;8.95;5.28;;;19.60;99.90;;;;;;5034078;28;20033;-74
2023/06/25 05:06:27;;;;;;;10.93;4.85;;;19.60;99.90;;;;;;5034393;28;20022;-74
2023/06/25 05:08:56;;;;;;;10.65;5.32;;;19.70;99.90;;;;;;5034336;28;20033;-74
2023/06/25 05:11:22;;;;;;;10.10;4.97;;;19.80;99.90;;;;;;5032288;28;20036;-74
2023/06/25 05:13:48;;;;;;;9.90;5.22;;;19.90;99.90;;;;;;5033809;28;20401;-74
2023/06/25 05:16:14;;;;;;;12.70;5.25;;;20.00;99.90;;;;;;5034227;28;20029;-74
2023/06/25 05:18:42;;;;;;;9.85;5.60;;;20.00;99.90;;;;;;5034156;28;20029;-74
2023/06/25 05:21:08;;;;;;;10.40;5.05;;;20.20;99.90;;;;;;5034058;28;20380;-74
2023/06/25 05:23:44;;;;;;;8.43;4.82;;;20.20;99.90;;;;;;5033968;28;20108;-74
2023/06/25 05:26:10;;;;;;;9.80;4.95;;;20.40;99.90;;;;;;5033842;28;20039;-74
2023/06/25 05:28:36;;;;;;;9.63;4.55;;;20.50;99.90;;;;;;5034075;28;20029;-74
2023/06/25 05:31:01;;;;;;;7.75;4.93;;;20.70;99.90;;;;;;5033900;28;20028;-74
2023/06/25 05:33:27;;;;;;;7.65;4.32;;;20.70;99.90;;;;;;5033772;28;20061;-74
2023/06/25 05:35:52;;;;;;;10.63;4.32;;;20.80;99.90;;;;;;5034169;28;20029;-75
2023/06/25 05:38:18;;;;;;;10.18;5.13;;;20.80;99.90;;;;;;5033717;28;20017;-75
2023/06/25 05:40:43;;;;;;;8.85;4.32;;;20.90;99.90;;;;;;5033647;28;20025;-75
2023/06/25 05:43:09;;;;;;;6.60;3.78;;;21.10;99.90;;;;;;5033598;28;20017;-74
2023/06/25 05:45:34;;;;;;;8.77;4.00;;;21.10;99.90;;;;;;5030724;28;20029;-74
2023/06/25 05:48:00;;;;;;;9.40;3.47;;;21.20;99.90;;;;;;5032795;28;20108;-75
2023/06/25 05:50:25;;;;;;;5.63;3.88;;;21.40;99.90;;;;;;5032399;28;20029;-75
2023/06/25 05:52:52;;;;;;;5.70;3.17;;;21.50;99.90;;;;;;5033356;28;20029;-75
2023/06/25 05:55:17;;;;;;;8.40;3.47;;;21.60;99.90;;;;;;5033442;28;20412;-74
2023/06/25 05:57:43;;;;;;;7.53;3.53;;;21.70;99.90;;;;;;5033038;28;20036;-74
2023/06/25 06:00:09;;;;;;;5.80;3.67;;;21.90;99.90;;;;;;5032373;28;20021;-74
2023/06/25 06:02:34;;;;;;;5.00;2.90;;;22.00;99.90;;;;;;5033233;28;20017;-75
2023/06/25 06:05:00;;;;;;;6.45;3.22;;;22.10;99.90;;;;;;5033542;28;20029;-75
2023/06/25 06:07:26;;;;;;;4.82;2.85;;;22.20;99.90;;;;;;5033383;28;20025;-75
2023/06/25 06:09:51;;;;;;;7.47;3.25;;;22.50;99.90;;;;;;5033104;28;20022;-75
2023/06/25 06:12:17;;;;;;;6.03;2.97;;;22.50;99.90;;;;;;5032312;28;20033;-75
2023/06/25 06:14:43;;;;;;;6.68;2.83;;;22.60;99.90;;;;;;5031786;28;20389;-75
2023/06/25 06:17:09;;;;;;;5.60;3.20;;;22.70;99.90;;;;;;5033459;28;20498;-76
2023/06/25 06:19:35;;;;;;;4.38;2.35;;;22.90;99.90;;;;;;5033899;28;20520;-75
2023/06/25 06:22:00;;;;;;;8.57;3.20;;;22.90;99.90;;;;;;5033068;28;20014;-74
2023/06/25 06:24:27;;;;;;;4.88;3.08;;;23.00;99.90;;;;;;5033289;28;20025;-74
2023/06/25 06:26:52;;;;;;;4.38;1.88;;;23.10;99.90;;;;;;5033624;28;20508;-75
2023/06/25 06:29:19;;;;;;;5.85;2.72;;;23.30;99.90;;;;;;5033622;28;20018;-76
2023/06/25 06:31:45;;;;;;;4.85;2.83;;;23.40;99.90;;;;;;5034055;28;20555;-76
2023/06/25 06:34:11;;;;;;;7.78;2.70;;;23.50;99.90;;;;;;5033739;28;20025;-76
2023/06/25 06:36:36;;;;;;;6.68;2.75;;;23.60;99.90;;;;;;5033513;28;20083;-74
2023/06/25 06:39:02;;;;;;;4.80;2.83;;;23.70;99.90;;;;;;5032937;28;20018;-74
2023/06/25 06:41:28;;;;;;;7.72;3.92;;;23.90;99.90;;;;;;5031879;28;20101;-74
2023/06/25 06:43:53;;;;;;;5.45;2.03;;;23.90;99.90;;;;;;5032729;28;20477;-74
2023/06/25 06:46:19;;;;;;;5.07;2.33;;;24.10;99.90;;;;;;5032898;28;20026;-74
2023/06/25 06:48:44;;;;;;;6.00;2.70;;;24.20;99.90;;;;;;5032899;28;20076;-74
2023/06/25 06:51:10;;;;;;;4.72;2.40;;;24.30;99.90;;;;;;5033075;28;20476;-74
2023/06/25 06:53:35;;;;;;;7.40;2.95;;;24.30;99.90;;;;;;5031243;28;20112;-74
2023/06/25 06:56:01;;;;;;;6.90;3.10;;;24.40;99.90;;;;;;5032758;28;20018;-74
2023/06/25 06:58:27;;;;;;;5.53;2.45;;;24.50;99.90;;;;;;5034628;28;20540;-74
2023/06/25 07:00:52;;;;;;;11.45;3.03;;;24.50;99.90;;;;;;5036768;28;20504;-74
2023/06/25 07:03:18;;;;;;;7.65;3.83;;;24.60;99.90;;;;;;5036691;28;20029;-74
2023/06/25 07:05:43;;;;;;;8.45;3.38;;;24.70;99.90;;;;;;5051808;28;20033;-74
2023/06/25 07:08:09;;;;;;;8.25;2.03;;;24.80;99.90;;;;;;5036712;28;20147;-74
2023/06/25 07:10:35;;;;;;;6.63;3.17;;;24.90;99.90;;;;;;5036492;28;20060;-74
2023/06/25 07:13:01;;;;;;;4.80;2.20;;;25.00;99.90;;;;;;5036430;28;20037;-74
2023/06/25 07:15:26;;;;;;;7.22;2.95;;;25.10;99.90;;;;;;5036450;28;20030;-74
2023/06/25 07:17:52;;;;;;;8.95;3.60;;;25.20;99.90;;;;;;5036245;28;20029;-74
2023/06/25 07:20:18;;;;;;;6.00;3.42;;;25.30;99.90;;;;;;5036264;28;20488;-74
2023/06/25 07:22:44;;;;;;;7.25;2.40;;;25.30;99.90;;;;;;5034995;28;20010;-74
2023/06/25 07:25:12;;;;;;;4.40;2.28;;;25.40;99.90;;;;;;5036238;28;20432;-74
2023/06/25 07:27:38;;;;;;;6.22;2.85;;;25.50;99.50;;;;;;5036477;28;20107;-74
2023/06/25 07:30:04;;;;;;;5.60;2.28;;;25.60;99.00;;;;;;5049947;28;20096;-74
2023/06/25 07:32:30;;;;;;;7.85;2.80;;;25.70;98.80;;;;;;5036171;28;20025;-74
2023/06/25 07:34:57;;;;;;;3.95;1.92;;;25.80;98.50;;;;;;5035752;28;20029;-74
2023/06/25 07:37:23;;;;;;;3.95;1.92;;;26.00;97.10;;;;;;5035967;28;20028;-74
2023/06/25 07:39:48;;;;;;;5.10;1.85;;;26.00;96.90;;;;;;5036535;28;20025;-74
2023/06/25 07:42:14;;;;;;;5.60;2.35;;;26.10;95.70;;;;;;5035913;28;20060;-74
2023/06/25 07:44:39;;;;;;;6.10;2.55;;;26.20;96.20;;;;;;5035740;28;20134;-74
2023/06/25 07:47:05;;;;;;;3.97;1.63;;;26.30;96.00;;;;;;5035964;28;20083;-74
2023/06/25 07:49:30;;;;;;;3.55;1.60;;;26.40;96.00;;;;;;5036135;28;20029;-74
2023/06/25 07:51:56;;;;;;;4.85;1.35;;;26.40;95.10;;;;;;5035881;28;20537;-74
2023/06/25 07:54:22;;;;;;;5.25;1.60;;;26.50;94.30;;;;;;5035531;28;20025;-74
2023/06/25 07:56:48;;;;;;;4.25;1.42;;;26.50;93.80;;;;;;5035400;28;20417;-74
2023/06/25 07:59:14;;;;;;;3.40;1.77;;;26.50;93.50;;;;;;5036055;28;20014;-74
2023/06/25 08:01:39;;;;;;;4.25;1.60;;;26.60;93.50;;;;;;5035672;28;20092;-74
2023/06/25 08:04:05;;;;;;;4.85;1.67;;;26.60;93.50;;;;;;5035690;28;20112;-74
2023/06/25 08:06:31;;;;;;;3.03;1.90;;;26.80;93.10;;;;;;5035609;28;20025;-74
2023/06/25 08:08:57;;;;;;;3.15;2.03;;;26.80;92.70;;;;;;5033581;28;20069;-74
2023/06/25 08:11:22;;;;;;;5.75;1.95;;;26.80;93.20;;;;;;5034766;28;20025;-74
2023/06/25 08:13:48;;;;;;;4.65;1.65;;;26.90;93.10;;;;;;5035016;28;20476;-74
2023/06/25 08:16:13;;;;;;;2.97;1.63;;;27.10;93.60;;;;;;5035348;28;20064;-74
2023/06/25 08:18:39;;;;;;;4.70;1.90;;;27.10;92.70;;;;;;5035174;28;20515;-74
2023/06/25 08:21:04;;;;;;;4.85;1.38;;;27.20;92.50;;;;;;5035397;28;20018;-74
2023/06/25 08:23:30;;;;;;;6.65;1.30;;;27.20;92.20;;;;;;5035064;28;20032;-74
2023/06/25 08:25:55;;;;;;;4.15;1.67;;;27.30;92.50;;;;;;5035137;28;20051;-74
2023/06/25 08:28:21;;;;;;;3.38;1.58;;;27.40;92.10;;;;;;5035008;28;20477;-74
2023/06/25 08:30:47;;;;;;;3.30;1.40;;;27.50;91.70;;;;;;5033763;28;20400;-74
2023/06/25 08:33:13;;;;;;;2.25;1.27;;;27.60;91.30;;;;;;5034813;28;20025;-74
2023/06/25 08:35:38;;;;;;;1.45;0.93;;;27.70;90.90;;;;;;5035090;28;20020;-74
2023/06/25 08:38:04;;;;;;;4.38;1.45;;;27.80;88.30;;;;;;5035275;28;20075;-74
2023/06/25 08:40:35;;;;;;;1.73;0.98;;;27.80;87.10;;;;;;5034731;28;20028;-75
2023/06/25 08:43:00;;;;;;;2.13;1.20;;;27.90;86.10;;;;;;5035033;28;20029;-75
2023/06/25 08:45:26;;;;;;;5.70;1.10;;;28.00;88.00;;;;;;5034942;28;20539;-74
2023/06/25 08:47:57;;;;;;;2.17;0.50;;;28.00;83.70;;;;;;5034899;28;20025;-74
2023/06/25 08:50:23;;;;;;;4.63;1.55;;;28.10;85.40;;;;;;5034714;28;20025;-74
2023/06/25 08:52:50;;;;;;;3.65;1.40;;;28.20;83.50;;;;;;5034621;28;20026;-74
2023/06/25 08:55:17;;;;;;;2.75;1.25;;;28.30;81.50;;;;;;5034888;28;20491;-74
2023/06/25 08:57:43;;;;;;;2.03;0.73;;;28.20;83.00;;;;;;5034567;28;20021;-74
2023/06/25 09:00:09;;;;;;;3.03;0.98;;;28.30;84.30;;;;;;5033191;28;20032;-74
2023/06/25 09:02:35;;;;;;;1.98;0.73;;;28.30;75.30;;;;;;5034606;28;20096;-74
2023/06/25 09:05:09;;;;;;;1.70;0.57;;;28.30;77.80;;;;;;5034330;28;20105;-74
2023/06/25 09:07:43;;;;;;;1.35;0.40;;;28.40;77.80;;;;;;5034492;28;20026;-74
2023/06/25 09:10:09;;;;;;;1.30;0.32;;;28.60;76.30;;;;;;5034462;28;20051;-74
2023/06/25 09:12:35;;;;;;;1.23;0.40;;;28.70;74.70;;;;;;5032795;28;20034;-74
2023/06/25 09:15:01;;;;;;;2.03;0.70;;;28.70;73.10;;;;;;5032929;28;20075;-73
2023/06/25 09:17:26;;;;;;;2.75;0.40;;;28.80;73.50;;;;;;5034414;28;20366;-74
2023/06/25 09:19:52;;;;;;;4.57;0.98;;;28.80;71.20;;;;;;5032983;28;20017;-74
2023/06/25 09:22:18;;;;;;;2.30;0.73;;;28.80;70.80;;;;;;5032160;28;20025;-73
2023/06/25 09:24:46;;;;;;;1.50;0.70;;;29.00;71.90;;;;;;5033153;28;20037;-73
2023/06/25 09:27:12;;;;;;;1.95;0.75;;;29.00;72.70;;;;;;5032800;28;20025;-74
2023/06/25 09:29:38;;;;;;;2.30;0.85;;;29.10;71.00;;;;;;5033740;28;20503;-74
2023/06/25 09:32:08;;;;;;;1.48;0.60;;;29.20;68.50;;;;;;5031568;28;20021;-74
2023/06/25 09:34:34;;;;;;;1.90;0.47;;;29.20;68.90;;;;;;5049275;28;20047;-74
2023/06/25 09:37:02;;;;;;;2.55;0.68;;;29.30;68.40;;;;;;5034508;28;20021;-74
2023/06/25 09:39:29;;;;;;;4.13;1.20;;;29.50;69.70;;;;;;5034142;28;20028;-74
2023/06/25 09:41:55;;;;;;;1.85;0.82;;;29.50;66.40;;;;;;5032662;28;20022;-74
2023/06/25 09:44:22;;;;;;;2.00;1.13;;;29.60;67.20;;;;;;5033786;28;20060;-73
2023/06/25 09:46:50;;;;;;;6.70;1.15;;;29.50;66.40;;;;;;5033712;28;20033;-73
2023/06/25 09:49:19;;;;;;;3.55;1.08;;;29.70;68.60;;;;;;5034391;28;20025;-74
2023/06/25 09:51:58;;;;;;;3.00;1.10;;;29.80;68.60;;;;;;5033692;28;20025;-74
2023/06/25 09:54:26;;;;;;;3.00;0.90;;;29.90;67.80;;;;;;5033694;28;20029;-74
2023/06/25 09:56:53;;;;;;;4.30;0.88;;;30.10;66.50;;;;;;5033723;28;20469;-74
2023/06/25 09:59:19;;;;;;;2.70;0.60;;;30.20;67.20;;;;;;5033641;28;20096;-74
2023/06/25 10:01:45;;;;;;;1.67;0.57;;;30.30;66.50;;;;;;5034087;28;20029;-74
2023/06/25 10:04:10;;;;;;;1.38;0.82;;;30.40;63.90;;;;;;5033482;28;20021;-74
2023/06/25 10:06:37;;;;;;;2.53;0.93;;;30.30;64.70;;;;;;5033536;28;20019;-74
2023/06/25 10:09:04;;;;;;;0.98;0.60;;;30.30;65.70;;;;;;5032226;28;20110;-74
2023/06/25 10:11:30;;;;;;;3.30;0.45;;;30.40;64.20;;;;;;5033565;28;20022;-74
2023/06/25 10:13:57;;;;;;;1.83;0.47;;;30.50;64.90;;;;;;5033168;28;20466;-74
2023/06/25 10:16:23;;;;;;;4.70;0.65;;;30.60;64.10;;;;;;5033599;28;20439;-74
2023/06/25 10:18:54;;;;;;;0.88;0.47;;;30.80;62.50;;;;;;5033329;28;20468;-74
2023/06/25 10:21:22;;;;;;;0.85;0.38;;;30.90;62.00;;;;;;5033928;28;20056;-74
2023/06/25 10:23:57;;;;;;;;;;;31.00;61.80;;;;;;5033540;28;20056;-74
2023/06/25 10:26:32;;;;;;;1.70;0.40;;;30.80;63.60;;;;;;5031952;28;19959;-74
2023/06/25 10:29:04;;;;;;;4.43;1.20;;;30.90;63.90;;;;;;5033150;28;20516;-74
2023/06/25 10:31:38;;;;;;;2.75;1.10;;;31.10;64.10;;;;;;5033206;28;20116;-74
2023/06/25 10:34:07;;;;;;;2.13;0.73;;;31.40;62.90;;;;;;5036480;28;20030;-74
2023/06/25 10:36:33;;;;;;;1.75;1.05;;;31.50;61.70;;;;;;5037242;28;20060;-74
2023/06/25 10:38:59;;;;;;;1.40;0.60;;;31.60;60.00;;;;;;5037210;28;20045;-74
2023/06/25 10:41:32;;;;;;;2.42;0.95;;;31.80;60.80;;;;;;5037266;28;20017;-74
2023/06/25 10:43:58;;;;;;;1.35;0.55;;;31.70;58.80;;;;;;5037208;28;20112;-74
2023/06/25 10:46:28;;;;;;;1.92;0.63;;;31.80;60.20;;;;;;5037225;28;20026;-74
2023/06/25 10:48:54;;;;;;;1.45;0.50;;;32.00;60.20;;;;;;5037120;28;20551;-74
2023/06/25 10:51:19;;;;;;;1.42;0.40;;;32.30;59.60;;;;;;5037091;28;20021;-74
2023/06/25 10:53:46;;;;;;;1.35;0.40;;;32.30;57.20;;;;;;5035636;28;20025;-74
2023/06/25 10:56:12;;;;;;;1.00;0.30;;;32.30;56.80;;;;;;5036830;28;20071;-74
2023/06/25 10:58:41;;;;;;;0.95;0.20;;;32.20;55.80;;;;;;5036969;28;20493;-74
2023/06/25 11:01:07;;;;;;;2.60;0.55;;;32.20;56.80;;;;;;5036856;28;20022;-74
2023/06/25 11:03:36;;;;;;;0.75;0.47;;;32.20;55.80;;;;;;5036787;28;20036;-74
2023/06/25 11:06:01;;;;;;;2.08;0.35;;;32.20;56.80;;;;;;5052198;28;20017;-74
2023/06/25 11:08:27;;;;;;;1.23;0.50;;;32.30;56.50;;;;;;5035451;28;20373;-74
2023/06/25 11:10:53;;;;;;;1.73;0.47;;;32.40;55.60;;;;;;5036659;28;20018;-74
2023/06/25 11:13:18;;;;;;;0.82;0.38;;;32.30;56.00;;;;;;5036303;28;20029;-74
2023/06/25 11:15:44;;;;;;;3.55;0.40;;;32.50;57.20;;;;;;5036552;28;20481;-74
2023/06/25 11:18:10;;;;;;;1.90;0.30;;;32.60;56.00;;;;;;5036451;28;20023;-74
2023/06/25 11:20:39;;;;;;;2.28;0.30;;;32.60;55.50;;;;;;5036353;28;20052;-74
2023/06/25 11:23:04;;;;;;;1.05;0.30;;;32.80;56.80;;;;;;5036336;28;20029;-74
2023/06/25 11:25:30;;;;;;;1.38;0.35;;;33.00;57.00;;;;;;5036427;28;20025;-74
2023/06/25 11:28:08;;;;;;;0.68;0.40;;;33.30;57.10;;;;;;5036427;28;20108;-74
2023/06/25 11:30:33;;;;;;;1.77;0.57;;;33.40;56.40;;;;;;5035156;28;20021;-74
2023/06/25 11:33:17;;;;;;;3.50;0.70;;;33.50;56.00;;;;;;5036196;28;20385;-74
2023/06/25 11:35:50;;;;;;;1.17;0.75;;;33.70;56.00;;;;;;5036138;28;20080;-74
2023/06/25 11:38:28;;;;;;;1.02;0.43;;;33.70;57.00;;;;;;5036190;28;20100;-73
2023/06/25 11:40:57;;;;;;;1.45;0.50;;;33.60;55.30;;;;;;5036182;28;20045;-73
2023/06/25 11:43:23;;;;;;;1.75;0.65;;;33.60;57.30;;;;;;5035820;28;20018;-74
2023/06/25 11:45:49;;;;;;;1.20;0.30;;;33.80;56.80;;;;;;5036073;28;20445;-74
2023/06/25 11:48:16;;;;;;;2.78;0.82;;;33.80;55.40;;;;;;5036052;28;20049;-74
2023/06/25 11:50:47;;;;;;;1.17;0.45;;;33.80;55.30;;;;;;5035089;28;20454;-74
2023/06/25 11:53:14;;;;;;;1.13;0.30;;;33.70;55.40;;;;;;5035965;28;20025;-74
2023/06/25 11:55:40;;;;;;;2.40;0.40;;;33.80;54.80;;;;;;5034585;28;20565;-74
2023/06/25 11:58:05;;;;;;;0.80;0.70;;;34.00;55.20;;;;;;5035940;28;20052;-74
2023/06/25 12:00:31;;;;;;;1.05;0.45;;;34.30;57.40;;;;;;5035776;28;20148;-74
2023/06/25 12:02:56;;;;;;;2.53;0.60;;;34.50;55.10;;;;;;5035654;28;20576;-74
2023/06/25 12:05:22;;;;;;;0.93;0.47;;;34.80;54.90;;;;;;5035728;28;20489;-74
2023/06/25 12:07:48;;;;;;;0.38;0.25;;;35.00;53.40;;;;;;5035753;28;20496;-73
2023/06/25 12:10:13;;;;;;;1.75;0.82;;;35.00;52.50;;;;;;5035604;28;20043;-73
2023/06/25 12:12:39;;;;;;;1.88;0.40;;;35.00;53.70;;;;;;5035898;28;20024;-73
2023/06/25 12:15:05;;;;;;;1.23;0.73;;;35.10;52.90;;;;;;5035368;28;20037;-74
2023/06/25 12:17:30;;;;;;;0.95;0.70;;;35.30;53.40;;;;;;5035297;28;20017;-73
2023/06/25 12:19:56;;;;;;;3.20;0.45;;;35.20;52.30;;;;;;5033978;28;20032;-74
2023/06/25 12:22:22;;;;;;;1.67;0.55;;;35.10;51.10;;;;;;5035002;28;20452;-73
2023/06/25 12:24:47;;;;;;;2.15;0.57;;;35.00;50.80;;;;;;5034968;28;20028;-73
2023/06/25 12:27:13;;;;;;;1.05;0.57;;;35.00;51.30;;;;;;5034376;28;20021;-74
2023/06/25 12:29:39;;;;;;;1.02;0.63;;;34.70;52.00;;;;;;5035203;28;20037;-74
2023/06/25 12:32:04;;;;;;;0.93;0.60;;;34.60;51.80;;;;;;5035712;28;20385;-72
2023/06/25 12:34:30;;;;;;;2.58;0.50;;;34.50;52.30;;;;;;5035136;28;20029;-72
2023/06/25 12:36:56;;;;;;;0.55;0.50;;;34.60;54.00;;;;;;5035208;28;20018;-72
2023/06/25 12:39:21;;;;;;;1.02;0.45;;;34.80;52.10;;;;;;5035008;28;20026;-72
2023/06/25 12:41:47;;;;;;;7.75;1.23;;;35.10;51.60;;;;;;5033667;28;20025;-72